<?xml version="1.0" encoding="UTF-8" standalone="no" ?>
<gpx xmlns="http://www.topografix.com/GPX/1/1" creator="MapSource 6.11.6" version="1.1" xmlns:xsi="http://www.w3.org/2001/XMLSchema-instance" xsi:schemaLocation="http://www.topografix.com/GPX/1/1 http://www.topografix.com/GPX/1/1/gpx.xsd">

  <metadata>
    <link href="http://www.garmin.com">
      <text>Garmin International</text>
    </link>
    <time>2009-08-01T07:49:45Z</time>
    <bounds maxlat="50.669834" maxlon="6.246800" minlat="50.643697" minlon="6.204980"/>
  </metadata>

  <trk>
    <name>Dreilägerbachtalsperre</name>
    <link href="http://www.gpsies.com/map.do?fileId=hsabuubguoxjlboo"/>
    <extensions>
      <gpxx:TrackExtension xmlns:gpxx="http://www.garmin.com/xmlschemas/GpxExtensions/v3" xmlns:xsi="http://www.w3.org/2001/XMLSchema-instance" xsi:schemaLocation="http://www.garmin.com/xmlschemas/GpxExtensions/v3 http://www.garmin.com/xmlschemas/GpxExtensions/v3/GpxExtensionsv3.xsd">
        <gpxx:DisplayColor>White</gpxx:DisplayColor>
      </gpxx:TrackExtension>
    </extensions>
    <trkseg>
      <trkpt lat="50.660902" lon="6.205153">
        <ele>171.732660</ele>
        <time>2009-07-30T20:31:52Z</time>
      </trkpt>
      <trkpt lat="50.660749" lon="6.205536">
        <ele>172.693960</ele>
        <time>2009-07-30T20:32:04Z</time>
      </trkpt>
      <trkpt lat="50.660702" lon="6.205759">
        <ele>173.655270</ele>
        <time>2009-07-30T20:32:09Z</time>
      </trkpt>
      <trkpt lat="50.660665" lon="6.206093">
        <ele>174.616570</ele>
        <time>2009-07-30T20:32:18Z</time>
      </trkpt>
      <trkpt lat="50.660749" lon="6.206321">
        <ele>175.577880</ele>
        <time>2009-07-30T20:32:25Z</time>
      </trkpt>
      <trkpt lat="50.660714" lon="6.206413">
        <ele>179.423210</ele>
        <time>2009-07-30T20:32:27Z</time>
      </trkpt>
      <trkpt lat="50.660712" lon="6.206427">
        <ele>181.345820</ele>
        <time>2009-07-30T20:32:28Z</time>
      </trkpt>
      <trkpt lat="50.660746" lon="6.206695">
        <ele>183.268430</ele>
        <time>2009-07-30T20:32:35Z</time>
      </trkpt>
      <trkpt lat="50.660793" lon="6.206729">
        <ele>184.229850</ele>
        <time>2009-07-30T20:32:37Z</time>
      </trkpt>
      <trkpt lat="50.660790" lon="6.206644">
        <ele>188.075070</ele>
        <time>2009-07-30T20:32:39Z</time>
      </trkpt>
      <trkpt lat="50.660828" lon="6.206668">
        <ele>191.439570</ele>
        <time>2009-07-30T20:32:41Z</time>
      </trkpt>
      <trkpt lat="50.660858" lon="6.206669">
        <ele>196.726920</ele>
        <time>2009-07-30T20:32:42Z</time>
      </trkpt>
      <trkpt lat="50.660887" lon="6.206709">
        <ele>198.168940</ele>
        <time>2009-07-30T20:32:43Z</time>
      </trkpt>
      <trkpt lat="50.660894" lon="6.206696">
        <ele>201.533560</ele>
        <time>2009-07-30T20:32:44Z</time>
      </trkpt>
      <trkpt lat="50.661002" lon="6.206814">
        <ele>208.743400</ele>
        <time>2009-07-30T20:32:49Z</time>
      </trkpt>
      <trkpt lat="50.661117" lon="6.207026">
        <ele>217.395380</ele>
        <time>2009-07-30T20:32:56Z</time>
      </trkpt>
      <trkpt lat="50.661168" lon="6.207038">
        <ele>219.798580</ele>
        <time>2009-07-30T20:32:58Z</time>
      </trkpt>
      <trkpt lat="50.661216" lon="6.207090">
        <ele>223.643790</ele>
        <time>2009-07-30T20:33:01Z</time>
      </trkpt>
      <trkpt lat="50.661316" lon="6.207209">
        <ele>227.008540</ele>
        <time>2009-07-30T20:33:06Z</time>
      </trkpt>
      <trkpt lat="50.661378" lon="6.207274">
        <ele>230.853750</ele>
        <time>2009-07-30T20:33:09Z</time>
      </trkpt>
      <trkpt lat="50.661355" lon="6.207270">
        <ele>232.776480</ele>
        <time>2009-07-30T20:33:09Z</time>
      </trkpt>
      <trkpt lat="50.661475" lon="6.207416">
        <ele>235.660270</ele>
        <time>2009-07-30T20:33:16Z</time>
      </trkpt>
      <trkpt lat="50.661497" lon="6.207612">
        <ele>238.544310</ele>
        <time>2009-07-30T20:33:21Z</time>
      </trkpt>
      <trkpt lat="50.661543" lon="6.207742">
        <ele>239.024900</ele>
        <time>2009-07-30T20:33:24Z</time>
      </trkpt>
      <trkpt lat="50.661522" lon="6.207740">
        <ele>256.328730</ele>
        <time>2009-07-30T20:33:25Z</time>
      </trkpt>
      <trkpt lat="50.661706" lon="6.207741">
        <ele>259.212640</ele>
        <time>2009-07-30T20:33:33Z</time>
      </trkpt>
      <trkpt lat="50.661758" lon="6.207765">
        <ele>261.615960</ele>
        <time>2009-07-30T20:33:35Z</time>
      </trkpt>
      <trkpt lat="50.661963" lon="6.207855">
        <ele>264.499870</ele>
        <time>2009-07-30T20:33:43Z</time>
      </trkpt>
      <trkpt lat="50.662058" lon="6.207930">
        <ele>267.864500</ele>
        <time>2009-07-30T20:33:47Z</time>
      </trkpt>
      <trkpt lat="50.662131" lon="6.208071">
        <ele>270.267700</ele>
        <time>2009-07-30T20:33:52Z</time>
      </trkpt>
      <trkpt lat="50.662331" lon="6.208127">
        <ele>273.151850</ele>
        <time>2009-07-30T20:34:00Z</time>
      </trkpt>
      <trkpt lat="50.662739" lon="6.208517">
        <ele>279.400260</ele>
        <time>2009-07-30T20:34:19Z</time>
      </trkpt>
      <trkpt lat="50.662984" lon="6.208825">
        <ele>283.245600</ele>
        <time>2009-07-30T20:34:32Z</time>
      </trkpt>
      <trkpt lat="50.663454" lon="6.209263">
        <ele>289.494140</ele>
        <time>2009-07-30T20:34:54Z</time>
      </trkpt>
      <trkpt lat="50.663753" lon="6.209636">
        <ele>293.820060</ele>
        <time>2009-07-30T20:35:09Z</time>
      </trkpt>
      <trkpt lat="50.663978" lon="6.209802">
        <ele>298.146110</ele>
        <time>2009-07-30T20:35:19Z</time>
      </trkpt>
      <trkpt lat="50.664088" lon="6.209839">
        <ele>299.107290</ele>
        <time>2009-07-30T20:35:23Z</time>
      </trkpt>
      <trkpt lat="50.664370" lon="6.210186">
        <ele>301.991330</ele>
        <time>2009-07-30T20:35:38Z</time>
      </trkpt>
      <trkpt lat="50.664914" lon="6.210634">
        <ele>310.162470</ele>
        <time>2009-07-30T20:36:02Z</time>
      </trkpt>
      <trkpt lat="50.665144" lon="6.210924">
        <ele>312.565790</ele>
        <time>2009-07-30T20:36:14Z</time>
      </trkpt>
      <trkpt lat="50.665715" lon="6.211565">
        <ele>319.295040</ele>
        <time>2009-07-30T20:36:42Z</time>
      </trkpt>
      <trkpt lat="50.665794" lon="6.211626">
        <ele>320.737060</ele>
        <time>2009-07-30T20:36:46Z</time>
      </trkpt>
      <trkpt lat="50.666012" lon="6.211872">
        <ele>323.620970</ele>
        <time>2009-07-30T20:36:56Z</time>
      </trkpt>
      <trkpt lat="50.666119" lon="6.211885">
        <ele>326.985590</ele>
        <time>2009-07-30T20:37:01Z</time>
      </trkpt>
      <trkpt lat="50.666347" lon="6.212144">
        <ele>330.830930</ele>
        <time>2009-07-30T20:37:12Z</time>
      </trkpt>
      <trkpt lat="50.666688" lon="6.212444">
        <ele>335.156730</ele>
        <time>2009-07-30T20:37:28Z</time>
      </trkpt>
      <trkpt lat="50.666965" lon="6.212745">
        <ele>338.521480</ele>
        <time>2009-07-30T20:37:41Z</time>
      </trkpt>
      <trkpt lat="50.667255" lon="6.212976">
        <ele>341.405270</ele>
        <time>2009-07-30T20:37:54Z</time>
      </trkpt>
      <trkpt lat="50.667572" lon="6.213271">
        <ele>346.212030</ele>
        <time>2009-07-30T20:38:09Z</time>
      </trkpt>
      <trkpt lat="50.667840" lon="6.213585">
        <ele>349.576530</ele>
        <time>2009-07-30T20:38:22Z</time>
      </trkpt>
      <trkpt lat="50.667989" lon="6.213696">
        <ele>350.537840</ele>
        <time>2009-07-30T20:38:29Z</time>
      </trkpt>
      <trkpt lat="50.668269" lon="6.213976">
        <ele>352.941160</ele>
        <time>2009-07-30T20:38:42Z</time>
      </trkpt>
      <trkpt lat="50.668415" lon="6.214073">
        <ele>354.383170</ele>
        <time>2009-07-30T20:38:48Z</time>
      </trkpt>
      <trkpt lat="50.668701" lon="6.214325">
        <ele>356.786370</ele>
        <time>2009-07-30T20:39:01Z</time>
      </trkpt>
      <trkpt lat="50.669035" lon="6.214757">
        <ele>359.189690</ele>
        <time>2009-07-30T20:39:19Z</time>
      </trkpt>
      <trkpt lat="50.669220" lon="6.214890">
        <ele>359.670410</ele>
        <time>2009-07-30T20:39:27Z</time>
      </trkpt>
      <trkpt lat="50.669357" lon="6.215084">
        <ele>361.112420</ele>
        <time>2009-07-30T20:39:34Z</time>
      </trkpt>
      <trkpt lat="50.669515" lon="6.215380">
        <ele>361.112420</ele>
        <time>2009-07-30T20:39:44Z</time>
      </trkpt>
      <trkpt lat="50.669731" lon="6.215690">
        <ele>361.593130</ele>
        <time>2009-07-30T20:39:56Z</time>
      </trkpt>
      <trkpt lat="50.669815" lon="6.215962">
        <ele>363.996330</ele>
        <time>2009-07-30T20:40:03Z</time>
      </trkpt>
      <trkpt lat="50.669834" lon="6.216022">
        <ele>365.918940</ele>
        <time>2009-07-30T20:40:05Z</time>
      </trkpt>
      <trkpt lat="50.669746" lon="6.216165">
        <ele>366.880240</ele>
        <time>2009-07-30T20:40:10Z</time>
      </trkpt>
      <trkpt lat="50.669564" lon="6.216607">
        <ele>367.360960</ele>
        <time>2009-07-30T20:40:24Z</time>
      </trkpt>
      <trkpt lat="50.669454" lon="6.216805">
        <ele>368.322260</ele>
        <time>2009-07-30T20:40:30Z</time>
      </trkpt>
      <trkpt lat="50.669179" lon="6.217587">
        <ele>370.244870</ele>
        <time>2009-07-30T20:40:53Z</time>
      </trkpt>
      <trkpt lat="50.668806" lon="6.218726">
        <ele>368.802970</ele>
        <time>2009-07-30T20:41:25Z</time>
      </trkpt>
      <trkpt lat="50.668528" lon="6.219415">
        <ele>367.841550</ele>
        <time>2009-07-30T20:41:46Z</time>
      </trkpt>
      <trkpt lat="50.668428" lon="6.219597">
        <ele>367.841550</ele>
        <time>2009-07-30T20:41:52Z</time>
      </trkpt>
      <trkpt lat="50.668331" lon="6.219867">
        <ele>367.360960</ele>
        <time>2009-07-30T20:42:00Z</time>
      </trkpt>
      <trkpt lat="50.668088" lon="6.220252">
        <ele>366.880240</ele>
        <time>2009-07-30T20:42:14Z</time>
      </trkpt>
      <trkpt lat="50.667984" lon="6.220594">
        <ele>366.399530</ele>
        <time>2009-07-30T20:42:24Z</time>
      </trkpt>
      <trkpt lat="50.667848" lon="6.220799">
        <ele>365.918940</ele>
        <time>2009-07-30T20:42:31Z</time>
      </trkpt>
      <trkpt lat="50.667754" lon="6.220990">
        <ele>364.476920</ele>
        <time>2009-07-30T20:42:37Z</time>
      </trkpt>
      <trkpt lat="50.667515" lon="6.221524">
        <ele>363.515740</ele>
        <time>2009-07-30T20:42:54Z</time>
      </trkpt>
      <trkpt lat="50.667392" lon="6.221718">
        <ele>362.554320</ele>
        <time>2009-07-30T20:43:01Z</time>
      </trkpt>
      <trkpt lat="50.667112" lon="6.222339">
        <ele>361.593130</ele>
        <time>2009-07-30T20:43:20Z</time>
      </trkpt>
      <trkpt lat="50.667007" lon="6.222654">
        <ele>361.112420</ele>
        <time>2009-07-30T20:43:29Z</time>
      </trkpt>
      <trkpt lat="50.666911" lon="6.222863">
        <ele>360.631710</ele>
        <time>2009-07-30T20:43:36Z</time>
      </trkpt>
      <trkpt lat="50.666785" lon="6.223279">
        <ele>360.151120</ele>
        <time>2009-07-30T20:43:47Z</time>
      </trkpt>
      <trkpt lat="50.666730" lon="6.223429">
        <ele>360.631710</ele>
        <time>2009-07-30T20:43:52Z</time>
      </trkpt>
      <trkpt lat="50.666690" lon="6.223474">
        <ele>360.631710</ele>
        <time>2009-07-30T20:43:54Z</time>
      </trkpt>
      <trkpt lat="50.666674" lon="6.223573">
        <ele>360.631710</ele>
        <time>2009-07-30T20:43:56Z</time>
      </trkpt>
      <trkpt lat="50.666573" lon="6.223833">
        <ele>360.151120</ele>
        <time>2009-07-30T20:44:04Z</time>
      </trkpt>
      <trkpt lat="50.666416" lon="6.224134">
        <ele>361.112420</ele>
        <time>2009-07-30T20:44:14Z</time>
      </trkpt>
      <trkpt lat="50.666285" lon="6.224241">
        <ele>361.112420</ele>
        <time>2009-07-30T20:44:20Z</time>
      </trkpt>
      <trkpt lat="50.665835" lon="6.224811">
        <ele>362.554320</ele>
        <time>2009-07-30T20:44:43Z</time>
      </trkpt>
      <trkpt lat="50.665806" lon="6.224940">
        <ele>362.554320</ele>
        <time>2009-07-30T20:44:46Z</time>
      </trkpt>
      <trkpt lat="50.665843" lon="6.225033">
        <ele>363.035030</ele>
        <time>2009-07-30T20:44:49Z</time>
      </trkpt>
      <trkpt lat="50.665849" lon="6.225030">
        <ele>369.764280</ele>
        <time>2009-07-30T20:44:49Z</time>
      </trkpt>
      <trkpt lat="50.665841" lon="6.225054">
        <ele>378.896850</ele>
        <time>2009-07-30T20:44:50Z</time>
      </trkpt>
      <trkpt lat="50.665689" lon="6.225111">
        <ele>379.858030</ele>
        <time>2009-07-30T20:44:56Z</time>
      </trkpt>
      <trkpt lat="50.665467" lon="6.225372">
        <ele>380.338740</ele>
        <time>2009-07-30T20:45:07Z</time>
      </trkpt>
      <trkpt lat="50.665270" lon="6.225723">
        <ele>380.338740</ele>
        <time>2009-07-30T20:45:19Z</time>
      </trkpt>
      <trkpt lat="50.665183" lon="6.225920">
        <ele>379.858030</ele>
        <time>2009-07-30T20:45:25Z</time>
      </trkpt>
      <trkpt lat="50.665117" lon="6.226242">
        <ele>378.896850</ele>
        <time>2009-07-30T20:45:34Z</time>
      </trkpt>
      <trkpt lat="50.664947" lon="6.226659">
        <ele>377.454830</ele>
        <time>2009-07-30T20:45:47Z</time>
      </trkpt>
      <trkpt lat="50.664777" lon="6.227172">
        <ele>376.493530</ele>
        <time>2009-07-30T20:46:01Z</time>
      </trkpt>
      <trkpt lat="50.664621" lon="6.227565">
        <ele>375.532100</ele>
        <time>2009-07-30T20:46:13Z</time>
      </trkpt>
      <trkpt lat="50.664434" lon="6.227627">
        <ele>374.090080</ele>
        <time>2009-07-30T20:46:21Z</time>
      </trkpt>
      <trkpt lat="50.664298" lon="6.227874">
        <ele>374.090080</ele>
        <time>2009-07-30T20:46:29Z</time>
      </trkpt>
      <trkpt lat="50.664287" lon="6.228343">
        <ele>374.570800</ele>
        <time>2009-07-30T20:46:41Z</time>
      </trkpt>
      <trkpt lat="50.664180" lon="6.228542">
        <ele>374.570800</ele>
        <time>2009-07-30T20:46:48Z</time>
      </trkpt>
      <trkpt lat="50.663837" lon="6.228858">
        <ele>375.532100</ele>
        <time>2009-07-30T20:47:03Z</time>
      </trkpt>
      <trkpt lat="50.663518" lon="6.228669">
        <ele>375.532100</ele>
        <time>2009-07-30T20:47:17Z</time>
      </trkpt>
      <trkpt lat="50.663181" lon="6.228319">
        <ele>376.012810</ele>
        <time>2009-07-30T20:47:33Z</time>
      </trkpt>
      <trkpt lat="50.663086" lon="6.228175">
        <ele>376.012810</ele>
        <time>2009-07-30T20:47:39Z</time>
      </trkpt>
      <trkpt lat="50.662889" lon="6.227965">
        <ele>376.493530</ele>
        <time>2009-07-30T20:47:48Z</time>
      </trkpt>
      <trkpt lat="50.662835" lon="6.227924">
        <ele>376.012810</ele>
        <time>2009-07-30T20:47:50Z</time>
      </trkpt>
      <trkpt lat="50.662700" lon="6.227925">
        <ele>376.974240</ele>
        <time>2009-07-30T20:47:56Z</time>
      </trkpt>
      <trkpt lat="50.662648" lon="6.228388">
        <ele>377.454830</ele>
        <time>2009-07-30T20:48:08Z</time>
      </trkpt>
      <trkpt lat="50.662583" lon="6.228688">
        <ele>377.454830</ele>
        <time>2009-07-30T20:48:16Z</time>
      </trkpt>
      <trkpt lat="50.662370" lon="6.229138">
        <ele>377.454830</ele>
        <time>2009-07-30T20:48:30Z</time>
      </trkpt>
      <trkpt lat="50.662302" lon="6.229259">
        <ele>377.454830</ele>
        <time>2009-07-30T20:48:34Z</time>
      </trkpt>
      <trkpt lat="50.662315" lon="6.229337">
        <ele>377.454830</ele>
        <time>2009-07-30T20:48:36Z</time>
      </trkpt>
      <trkpt lat="50.662221" lon="6.230208">
        <ele>377.454830</ele>
        <time>2009-07-30T20:48:59Z</time>
      </trkpt>
      <trkpt lat="50.662140" lon="6.230568">
        <ele>377.454830</ele>
        <time>2009-07-30T20:49:08Z</time>
      </trkpt>
      <trkpt lat="50.662022" lon="6.230753">
        <ele>377.454830</ele>
        <time>2009-07-30T20:49:15Z</time>
      </trkpt>
      <trkpt lat="50.661883" lon="6.231721">
        <ele>377.935420</ele>
        <time>2009-07-30T20:49:40Z</time>
      </trkpt>
      <trkpt lat="50.661703" lon="6.231898">
        <ele>378.416130</ele>
        <time>2009-07-30T20:49:49Z</time>
      </trkpt>
      <trkpt lat="50.661652" lon="6.231978">
        <ele>378.896850</ele>
        <time>2009-07-30T20:49:51Z</time>
      </trkpt>
      <trkpt lat="50.661756" lon="6.231920">
        <ele>380.819450</ele>
        <time>2009-07-30T20:49:56Z</time>
      </trkpt>
      <trkpt lat="50.661681" lon="6.231878">
        <ele>380.338740</ele>
        <time>2009-07-30T20:49:59Z</time>
      </trkpt>
      <trkpt lat="50.661387" lon="6.231873">
        <ele>380.819450</ele>
        <time>2009-07-30T20:50:11Z</time>
      </trkpt>
      <trkpt lat="50.661100" lon="6.231735">
        <ele>380.819450</ele>
        <time>2009-07-30T20:50:23Z</time>
      </trkpt>
      <trkpt lat="50.660903" lon="6.231523">
        <ele>381.780630</ele>
        <time>2009-07-30T20:50:32Z</time>
      </trkpt>
      <trkpt lat="50.660819" lon="6.231527">
        <ele>381.780630</ele>
        <time>2009-07-30T20:50:36Z</time>
      </trkpt>
      <trkpt lat="50.660954" lon="6.231484">
        <ele>382.742060</ele>
        <time>2009-07-30T20:50:41Z</time>
      </trkpt>
      <trkpt lat="50.660941" lon="6.231479">
        <ele>384.184080</ele>
        <time>2009-07-30T20:50:42Z</time>
      </trkpt>
      <trkpt lat="50.660756" lon="6.231636">
        <ele>384.184080</ele>
        <time>2009-07-30T20:50:50Z</time>
      </trkpt>
      <trkpt lat="50.660624" lon="6.232022">
        <ele>386.106680</ele>
        <time>2009-07-30T20:51:01Z</time>
      </trkpt>
      <trkpt lat="50.660556" lon="6.232105">
        <ele>386.587400</ele>
        <time>2009-07-30T20:51:05Z</time>
      </trkpt>
      <trkpt lat="50.660490" lon="6.232141">
        <ele>388.029290</ele>
        <time>2009-07-30T20:51:08Z</time>
      </trkpt>
      <trkpt lat="50.660507" lon="6.232346">
        <ele>388.990600</ele>
        <time>2009-07-30T20:51:13Z</time>
      </trkpt>
      <trkpt lat="50.660444" lon="6.232652">
        <ele>389.951900</ele>
        <time>2009-07-30T20:51:21Z</time>
      </trkpt>
      <trkpt lat="50.660250" lon="6.233113">
        <ele>392.835930</ele>
        <time>2009-07-30T20:51:35Z</time>
      </trkpt>
      <trkpt lat="50.660174" lon="6.233391">
        <ele>393.316520</ele>
        <time>2009-07-30T20:51:43Z</time>
      </trkpt>
      <trkpt lat="50.660134" lon="6.233691">
        <ele>394.277950</ele>
        <time>2009-07-30T20:51:51Z</time>
      </trkpt>
      <trkpt lat="50.660139" lon="6.233989">
        <ele>394.758540</ele>
        <time>2009-07-30T20:51:58Z</time>
      </trkpt>
      <trkpt lat="50.660104" lon="6.234362">
        <ele>396.200560</ele>
        <time>2009-07-30T20:52:08Z</time>
      </trkpt>
      <trkpt lat="50.660084" lon="6.234749">
        <ele>395.719840</ele>
        <time>2009-07-30T20:52:18Z</time>
      </trkpt>
      <trkpt lat="50.660122" lon="6.234959">
        <ele>395.719840</ele>
        <time>2009-07-30T20:52:23Z</time>
      </trkpt>
      <trkpt lat="50.660122" lon="6.235223">
        <ele>395.719840</ele>
        <time>2009-07-30T20:52:30Z</time>
      </trkpt>
      <trkpt lat="50.660173" lon="6.235494">
        <ele>394.758540</ele>
        <time>2009-07-30T20:52:37Z</time>
      </trkpt>
      <trkpt lat="50.660347" lon="6.236116">
        <ele>393.797240</ele>
        <time>2009-07-30T20:52:54Z</time>
      </trkpt>
      <trkpt lat="50.660296" lon="6.236320">
        <ele>393.316520</ele>
        <time>2009-07-30T20:53:00Z</time>
      </trkpt>
      <trkpt lat="50.660296" lon="6.236437">
        <ele>393.316520</ele>
        <time>2009-07-30T20:53:03Z</time>
      </trkpt>
      <trkpt lat="50.660351" lon="6.236720">
        <ele>389.951900</ele>
        <time>2009-07-30T20:53:10Z</time>
      </trkpt>
      <trkpt lat="50.660484" lon="6.236750">
        <ele>390.432610</ele>
        <time>2009-07-30T20:53:16Z</time>
      </trkpt>
      <trkpt lat="50.660541" lon="6.236959">
        <ele>390.432610</ele>
        <time>2009-07-30T20:53:21Z</time>
      </trkpt>
      <trkpt lat="50.660542" lon="6.237461">
        <ele>391.393790</ele>
        <time>2009-07-30T20:53:34Z</time>
      </trkpt>
      <trkpt lat="50.660432" lon="6.237166">
        <ele>406.774900</ele>
        <time>2009-07-30T20:53:43Z</time>
      </trkpt>
      <trkpt lat="50.660567" lon="6.237414">
        <ele>407.736320</ele>
        <time>2009-07-30T20:53:51Z</time>
      </trkpt>
      <trkpt lat="50.660591" lon="6.237426">
        <ele>411.100950</ele>
        <time>2009-07-30T20:53:52Z</time>
      </trkpt>
      <trkpt lat="50.660617" lon="6.237544">
        <ele>410.620230</ele>
        <time>2009-07-30T20:53:55Z</time>
      </trkpt>
      <trkpt lat="50.660587" lon="6.237958">
        <ele>413.023550</ele>
        <time>2009-07-30T20:54:06Z</time>
      </trkpt>
      <trkpt lat="50.660596" lon="6.238288">
        <ele>415.426870</ele>
        <time>2009-07-30T20:54:14Z</time>
      </trkpt>
      <trkpt lat="50.660502" lon="6.238595">
        <ele>415.426870</ele>
        <time>2009-07-30T20:54:23Z</time>
      </trkpt>
      <trkpt lat="50.660492" lon="6.238657">
        <ele>415.907470</ele>
        <time>2009-07-30T20:54:25Z</time>
      </trkpt>
      <trkpt lat="50.660429" lon="6.238771">
        <ele>416.388180</ele>
        <time>2009-07-30T20:54:28Z</time>
      </trkpt>
      <trkpt lat="50.660321" lon="6.239048">
        <ele>416.868890</ele>
        <time>2009-07-30T20:54:37Z</time>
      </trkpt>
      <trkpt lat="50.660119" lon="6.239301">
        <ele>417.349600</ele>
        <time>2009-07-30T20:54:47Z</time>
      </trkpt>
      <trkpt lat="50.660004" lon="6.239889">
        <ele>417.830200</ele>
        <time>2009-07-30T20:55:03Z</time>
      </trkpt>
      <trkpt lat="50.659896" lon="6.240094">
        <ele>418.310790</ele>
        <time>2009-07-30T20:55:09Z</time>
      </trkpt>
      <trkpt lat="50.659850" lon="6.240237">
        <ele>418.791500</ele>
        <time>2009-07-30T20:55:13Z</time>
      </trkpt>
      <trkpt lat="50.659576" lon="6.240692">
        <ele>419.752800</ele>
        <time>2009-07-30T20:55:29Z</time>
      </trkpt>
      <trkpt lat="50.659580" lon="6.241008">
        <ele>420.233390</ele>
        <time>2009-07-30T20:55:37Z</time>
      </trkpt>
      <trkpt lat="50.659495" lon="6.241397">
        <ele>421.194820</ele>
        <time>2009-07-30T20:55:48Z</time>
      </trkpt>
      <trkpt lat="50.659289" lon="6.242014">
        <ele>424.559440</ele>
        <time>2009-07-30T20:56:05Z</time>
      </trkpt>
      <trkpt lat="50.659131" lon="6.242657">
        <ele>427.443350</ele>
        <time>2009-07-30T20:56:23Z</time>
      </trkpt>
      <trkpt lat="50.659065" lon="6.242765">
        <ele>427.923950</ele>
        <time>2009-07-30T20:56:27Z</time>
      </trkpt>
      <trkpt lat="50.659068" lon="6.242932">
        <ele>428.885370</ele>
        <time>2009-07-30T20:56:31Z</time>
      </trkpt>
      <trkpt lat="50.658984" lon="6.243112">
        <ele>428.885370</ele>
        <time>2009-07-30T20:56:37Z</time>
      </trkpt>
      <trkpt lat="50.658815" lon="6.243265">
        <ele>430.327270</ele>
        <time>2009-07-30T20:56:45Z</time>
      </trkpt>
      <trkpt lat="50.658560" lon="6.243401">
        <ele>432.730710</ele>
        <time>2009-07-30T20:56:55Z</time>
      </trkpt>
      <trkpt lat="50.658432" lon="6.243512">
        <ele>432.730710</ele>
        <time>2009-07-30T20:57:01Z</time>
      </trkpt>
      <trkpt lat="50.658148" lon="6.243865">
        <ele>435.614500</ele>
        <time>2009-07-30T20:57:16Z</time>
      </trkpt>
      <trkpt lat="50.657594" lon="6.244158">
        <ele>438.979120</ele>
        <time>2009-07-30T20:57:39Z</time>
      </trkpt>
      <trkpt lat="50.657359" lon="6.244319">
        <ele>440.901850</ele>
        <time>2009-07-30T20:57:49Z</time>
      </trkpt>
      <trkpt lat="50.657199" lon="6.244324">
        <ele>441.382440</ele>
        <time>2009-07-30T20:57:56Z</time>
      </trkpt>
      <trkpt lat="50.656913" lon="6.244458">
        <ele>442.824460</ele>
        <time>2009-07-30T20:58:08Z</time>
      </trkpt>
      <trkpt lat="50.656462" lon="6.244816">
        <ele>444.747070</ele>
        <time>2009-07-30T20:58:28Z</time>
      </trkpt>
      <trkpt lat="50.656240" lon="6.245093">
        <ele>446.189080</ele>
        <time>2009-07-30T20:58:39Z</time>
      </trkpt>
      <trkpt lat="50.655638" lon="6.245661">
        <ele>449.072990</ele>
        <time>2009-07-30T20:59:07Z</time>
      </trkpt>
      <trkpt lat="50.655574" lon="6.245917">
        <ele>450.515010</ele>
        <time>2009-07-30T20:59:14Z</time>
      </trkpt>
      <trkpt lat="50.655407" lon="6.245977">
        <ele>451.476310</ele>
        <time>2009-07-30T20:59:21Z</time>
      </trkpt>
      <trkpt lat="50.655323" lon="6.246166">
        <ele>451.957030</ele>
        <time>2009-07-30T20:59:27Z</time>
      </trkpt>
      <trkpt lat="50.654951" lon="6.246662">
        <ele>455.321530</ele>
        <time>2009-07-30T20:59:46Z</time>
      </trkpt>
      <trkpt lat="50.654739" lon="6.246800">
        <ele>456.282950</ele>
        <time>2009-07-30T20:59:56Z</time>
      </trkpt>
      <trkpt lat="50.654579" lon="6.246759">
        <ele>453.398920</ele>
        <time>2009-07-30T21:00:02Z</time>
      </trkpt>
      <trkpt lat="50.654556" lon="6.246579">
        <ele>449.072990</ele>
        <time>2009-07-30T21:00:07Z</time>
      </trkpt>
      <trkpt lat="50.654677" lon="6.246205">
        <ele>446.669670</ele>
        <time>2009-07-30T21:00:17Z</time>
      </trkpt>
      <trkpt lat="50.654674" lon="6.245898">
        <ele>445.708370</ele>
        <time>2009-07-30T21:00:25Z</time>
      </trkpt>
      <trkpt lat="50.654807" lon="6.245673">
        <ele>444.747070</ele>
        <time>2009-07-30T21:00:33Z</time>
      </trkpt>
      <trkpt lat="50.655266" lon="6.245517">
        <ele>444.747070</ele>
        <time>2009-07-30T21:00:52Z</time>
      </trkpt>
      <trkpt lat="50.655049" lon="6.245113">
        <ele>445.227660</ele>
        <time>2009-07-30T21:01:05Z</time>
      </trkpt>
      <trkpt lat="50.655049" lon="6.244867">
        <ele>445.227660</ele>
        <time>2009-07-30T21:01:11Z</time>
      </trkpt>
      <trkpt lat="50.655121" lon="6.244463">
        <ele>445.227660</ele>
        <time>2009-07-30T21:01:22Z</time>
      </trkpt>
      <trkpt lat="50.655159" lon="6.243911">
        <ele>445.708370</ele>
        <time>2009-07-30T21:01:36Z</time>
      </trkpt>
      <trkpt lat="50.655668" lon="6.242996">
        <ele>446.189080</ele>
        <time>2009-07-30T21:02:07Z</time>
      </trkpt>
      <trkpt lat="50.655721" lon="6.242805">
        <ele>446.189080</ele>
        <time>2009-07-30T21:02:12Z</time>
      </trkpt>
      <trkpt lat="50.655819" lon="6.242638">
        <ele>446.189080</ele>
        <time>2009-07-30T21:02:18Z</time>
      </trkpt>
      <trkpt lat="50.656019" lon="6.242382">
        <ele>446.669670</ele>
        <time>2009-07-30T21:02:28Z</time>
      </trkpt>
      <trkpt lat="50.656091" lon="6.242079">
        <ele>446.669670</ele>
        <time>2009-07-30T21:02:37Z</time>
      </trkpt>
      <trkpt lat="50.656328" lon="6.241631">
        <ele>447.150260</ele>
        <time>2009-07-30T21:02:52Z</time>
      </trkpt>
      <trkpt lat="50.656585" lon="6.241254">
        <ele>447.150260</ele>
        <time>2009-07-30T21:03:06Z</time>
      </trkpt>
      <trkpt lat="50.656642" lon="6.241093">
        <ele>447.630980</ele>
        <time>2009-07-30T21:03:10Z</time>
      </trkpt>
      <trkpt lat="50.656648" lon="6.240915">
        <ele>447.150260</ele>
        <time>2009-07-30T21:03:15Z</time>
      </trkpt>
      <trkpt lat="50.656686" lon="6.240540">
        <ele>447.150260</ele>
        <time>2009-07-30T21:03:24Z</time>
      </trkpt>
      <trkpt lat="50.656805" lon="6.240301">
        <ele>447.630980</ele>
        <time>2009-07-30T21:03:32Z</time>
      </trkpt>
      <trkpt lat="50.656887" lon="6.240050">
        <ele>448.111810</ele>
        <time>2009-07-30T21:03:39Z</time>
      </trkpt>
      <trkpt lat="50.656916" lon="6.239679">
        <ele>447.150260</ele>
        <time>2009-07-30T21:03:49Z</time>
      </trkpt>
      <trkpt lat="50.656979" lon="6.239175">
        <ele>447.630980</ele>
        <time>2009-07-30T21:04:02Z</time>
      </trkpt>
      <trkpt lat="50.656949" lon="6.238827">
        <ele>448.111810</ele>
        <time>2009-07-30T21:04:11Z</time>
      </trkpt>
      <trkpt lat="50.657058" lon="6.238179">
        <ele>448.592400</ele>
        <time>2009-07-30T21:04:28Z</time>
      </trkpt>
      <trkpt lat="50.657054" lon="6.237757">
        <ele>448.592400</ele>
        <time>2009-07-30T21:04:38Z</time>
      </trkpt>
      <trkpt lat="50.657192" lon="6.237325">
        <ele>448.592400</ele>
        <time>2009-07-30T21:04:51Z</time>
      </trkpt>
      <trkpt lat="50.657257" lon="6.237025">
        <ele>449.072990</ele>
        <time>2009-07-30T21:04:59Z</time>
      </trkpt>
      <trkpt lat="50.657307" lon="6.236901">
        <ele>449.553710</ele>
        <time>2009-07-30T21:05:02Z</time>
      </trkpt>
      <trkpt lat="50.657362" lon="6.236515">
        <ele>449.553710</ele>
        <time>2009-07-30T21:05:13Z</time>
      </trkpt>
      <trkpt lat="50.657480" lon="6.236303">
        <ele>449.553710</ele>
        <time>2009-07-30T21:05:20Z</time>
      </trkpt>
      <trkpt lat="50.657492" lon="6.235817">
        <ele>450.034420</ele>
        <time>2009-07-30T21:05:32Z</time>
      </trkpt>
      <trkpt lat="50.657451" lon="6.235323">
        <ele>450.034420</ele>
        <time>2009-07-30T21:05:45Z</time>
      </trkpt>
      <trkpt lat="50.657463" lon="6.235105">
        <ele>450.034420</ele>
        <time>2009-07-30T21:05:50Z</time>
      </trkpt>
      <trkpt lat="50.657391" lon="6.234626">
        <ele>450.034420</ele>
        <time>2009-07-30T21:06:03Z</time>
      </trkpt>
      <trkpt lat="50.657387" lon="6.234237">
        <ele>450.995600</ele>
        <time>2009-07-30T21:06:13Z</time>
      </trkpt>
      <trkpt lat="50.657487" lon="6.233732">
        <ele>450.995600</ele>
        <time>2009-07-30T21:06:26Z</time>
      </trkpt>
      <trkpt lat="50.657385" lon="6.233446">
        <ele>451.476310</ele>
        <time>2009-07-30T21:06:34Z</time>
      </trkpt>
      <trkpt lat="50.657365" lon="6.233007">
        <ele>451.476310</ele>
        <time>2009-07-30T21:06:46Z</time>
      </trkpt>
      <trkpt lat="50.657202" lon="6.232182">
        <ele>451.957030</ele>
        <time>2009-07-30T21:07:07Z</time>
      </trkpt>
      <trkpt lat="50.657169" lon="6.231785">
        <ele>452.437620</ele>
        <time>2009-07-30T21:07:18Z</time>
      </trkpt>
      <trkpt lat="50.657027" lon="6.231579">
        <ele>451.957030</ele>
        <time>2009-07-30T21:07:25Z</time>
      </trkpt>
      <trkpt lat="50.656985" lon="6.231159">
        <ele>452.437620</ele>
        <time>2009-07-30T21:07:36Z</time>
      </trkpt>
      <trkpt lat="50.656773" lon="6.230719">
        <ele>452.918210</ele>
        <time>2009-07-30T21:07:50Z</time>
      </trkpt>
      <trkpt lat="50.656699" lon="6.230509">
        <ele>452.437620</ele>
        <time>2009-07-30T21:07:56Z</time>
      </trkpt>
      <trkpt lat="50.656546" lon="6.230180">
        <ele>452.918210</ele>
        <time>2009-07-30T21:08:07Z</time>
      </trkpt>
      <trkpt lat="50.656498" lon="6.229889">
        <ele>453.398920</ele>
        <time>2009-07-30T21:08:14Z</time>
      </trkpt>
      <trkpt lat="50.656387" lon="6.229691">
        <ele>453.398920</ele>
        <time>2009-07-30T21:08:21Z</time>
      </trkpt>
      <trkpt lat="50.656358" lon="6.229288">
        <ele>453.879630</ele>
        <time>2009-07-30T21:08:31Z</time>
      </trkpt>
      <trkpt lat="50.656229" lon="6.229006">
        <ele>454.360220</ele>
        <time>2009-07-30T21:08:40Z</time>
      </trkpt>
      <trkpt lat="50.656152" lon="6.228634">
        <ele>453.879630</ele>
        <time>2009-07-30T21:08:50Z</time>
      </trkpt>
      <trkpt lat="50.656021" lon="6.228405">
        <ele>453.879630</ele>
        <time>2009-07-30T21:08:58Z</time>
      </trkpt>
      <trkpt lat="50.655927" lon="6.228105">
        <ele>453.879630</ele>
        <time>2009-07-30T21:09:06Z</time>
      </trkpt>
      <trkpt lat="50.655834" lon="6.227719">
        <ele>454.360220</ele>
        <time>2009-07-30T21:09:17Z</time>
      </trkpt>
      <trkpt lat="50.655783" lon="6.227360">
        <ele>454.840820</ele>
        <time>2009-07-30T21:09:26Z</time>
      </trkpt>
      <trkpt lat="50.655678" lon="6.227068">
        <ele>454.360220</ele>
        <time>2009-07-30T21:09:35Z</time>
      </trkpt>
      <trkpt lat="50.655633" lon="6.226352">
        <ele>454.840820</ele>
        <time>2009-07-30T21:09:53Z</time>
      </trkpt>
      <trkpt lat="50.655483" lon="6.226010">
        <ele>455.802240</ele>
        <time>2009-07-30T21:10:03Z</time>
      </trkpt>
      <trkpt lat="50.655377" lon="6.225469">
        <ele>456.282950</ele>
        <time>2009-07-30T21:10:18Z</time>
      </trkpt>
      <trkpt lat="50.655187" lon="6.225120">
        <ele>456.763540</ele>
        <time>2009-07-30T21:10:30Z</time>
      </trkpt>
      <trkpt lat="50.655099" lon="6.224788">
        <ele>456.763540</ele>
        <time>2009-07-30T21:10:39Z</time>
      </trkpt>
      <trkpt lat="50.655056" lon="6.224510">
        <ele>456.763540</ele>
        <time>2009-07-30T21:10:46Z</time>
      </trkpt>
      <trkpt lat="50.654859" lon="6.223784">
        <ele>457.724970</ele>
        <time>2009-07-30T21:11:06Z</time>
      </trkpt>
      <trkpt lat="50.654677" lon="6.223386">
        <ele>458.205560</ele>
        <time>2009-07-30T21:11:18Z</time>
      </trkpt>
      <trkpt lat="50.654585" lon="6.223049">
        <ele>458.205560</ele>
        <time>2009-07-30T21:11:28Z</time>
      </trkpt>
      <trkpt lat="50.654562" lon="6.222794">
        <ele>458.686150</ele>
        <time>2009-07-30T21:11:34Z</time>
      </trkpt>
      <trkpt lat="50.654459" lon="6.222111">
        <ele>458.686150</ele>
        <time>2009-07-30T21:11:52Z</time>
      </trkpt>
      <trkpt lat="50.654307" lon="6.221746">
        <ele>459.647580</ele>
        <time>2009-07-30T21:12:03Z</time>
      </trkpt>
      <trkpt lat="50.654205" lon="6.221375">
        <ele>459.166870</ele>
        <time>2009-07-30T21:12:13Z</time>
      </trkpt>
      <trkpt lat="50.654097" lon="6.221196">
        <ele>459.166870</ele>
        <time>2009-07-30T21:12:20Z</time>
      </trkpt>
      <trkpt lat="50.653964" lon="6.220848">
        <ele>459.647580</ele>
        <time>2009-07-30T21:12:30Z</time>
      </trkpt>
      <trkpt lat="50.653783" lon="6.220492">
        <ele>460.128170</ele>
        <time>2009-07-30T21:12:42Z</time>
      </trkpt>
      <trkpt lat="50.653718" lon="6.220260">
        <ele>461.089470</ele>
        <time>2009-07-30T21:12:48Z</time>
      </trkpt>
      <trkpt lat="50.653831" lon="6.220069">
        <ele>461.089470</ele>
        <time>2009-07-30T21:12:55Z</time>
      </trkpt>
      <trkpt lat="50.653589" lon="6.219759">
        <ele>460.608760</ele>
        <time>2009-07-30T21:13:07Z</time>
      </trkpt>
      <trkpt lat="50.653546" lon="6.219732">
        <ele>460.128170</ele>
        <time>2009-07-30T21:13:09Z</time>
      </trkpt>
      <trkpt lat="50.653342" lon="6.219290">
        <ele>460.128170</ele>
        <time>2009-07-30T21:13:23Z</time>
      </trkpt>
      <trkpt lat="50.653295" lon="6.219098">
        <ele>460.128170</ele>
        <time>2009-07-30T21:13:28Z</time>
      </trkpt>
      <trkpt lat="50.653189" lon="6.218852">
        <ele>460.128170</ele>
        <time>2009-07-30T21:13:36Z</time>
      </trkpt>
      <trkpt lat="50.653043" lon="6.218638">
        <ele>459.166870</ele>
        <time>2009-07-30T21:13:44Z</time>
      </trkpt>
      <trkpt lat="50.652745" lon="6.217967">
        <ele>460.128170</ele>
        <time>2009-07-30T21:14:04Z</time>
      </trkpt>
      <trkpt lat="50.652532" lon="6.217621">
        <ele>460.128170</ele>
        <time>2009-07-30T21:14:17Z</time>
      </trkpt>
      <trkpt lat="50.652366" lon="6.217480">
        <ele>460.128170</ele>
        <time>2009-07-30T21:14:24Z</time>
      </trkpt>
      <trkpt lat="50.652012" lon="6.217081">
        <ele>459.166870</ele>
        <time>2009-07-30T21:14:42Z</time>
      </trkpt>
      <trkpt lat="50.651817" lon="6.217071">
        <ele>459.166870</ele>
        <time>2009-07-30T21:14:49Z</time>
      </trkpt>
      <trkpt lat="50.651685" lon="6.217186">
        <ele>459.166870</ele>
        <time>2009-07-30T21:14:55Z</time>
      </trkpt>
      <trkpt lat="50.651641" lon="6.217285">
        <ele>459.647580</ele>
        <time>2009-07-30T21:14:59Z</time>
      </trkpt>
      <trkpt lat="50.651120" lon="6.217530">
        <ele>459.166870</ele>
        <time>2009-07-30T21:15:20Z</time>
      </trkpt>
      <trkpt lat="50.650924" lon="6.217564">
        <ele>458.686150</ele>
        <time>2009-07-30T21:15:28Z</time>
      </trkpt>
      <trkpt lat="50.650613" lon="6.217531">
        <ele>459.166870</ele>
        <time>2009-07-30T21:15:41Z</time>
      </trkpt>
      <trkpt lat="50.650249" lon="6.217606">
        <ele>458.686150</ele>
        <time>2009-07-30T21:15:55Z</time>
      </trkpt>
      <trkpt lat="50.649800" lon="6.217752">
        <ele>458.205560</ele>
        <time>2009-07-30T21:16:14Z</time>
      </trkpt>
      <trkpt lat="50.649449" lon="6.218000">
        <ele>458.686150</ele>
        <time>2009-07-30T21:16:29Z</time>
      </trkpt>
      <trkpt lat="50.649317" lon="6.218025">
        <ele>459.166870</ele>
        <time>2009-07-30T21:16:34Z</time>
      </trkpt>
      <trkpt lat="50.649161" lon="6.218096">
        <ele>458.205560</ele>
        <time>2009-07-30T21:16:41Z</time>
      </trkpt>
      <trkpt lat="50.648824" lon="6.218147">
        <ele>458.205560</ele>
        <time>2009-07-30T21:16:55Z</time>
      </trkpt>
      <trkpt lat="50.648527" lon="6.218106">
        <ele>458.205560</ele>
        <time>2009-07-30T21:17:06Z</time>
      </trkpt>
      <trkpt lat="50.648174" lon="6.218128">
        <ele>458.205560</ele>
        <time>2009-07-30T21:17:21Z</time>
      </trkpt>
      <trkpt lat="50.647629" lon="6.218261">
        <ele>459.166870</ele>
        <time>2009-07-30T21:17:43Z</time>
      </trkpt>
      <trkpt lat="50.647438" lon="6.218234">
        <ele>458.686150</ele>
        <time>2009-07-30T21:17:50Z</time>
      </trkpt>
      <trkpt lat="50.647171" lon="6.218118">
        <ele>459.166870</ele>
        <time>2009-07-30T21:18:01Z</time>
      </trkpt>
      <trkpt lat="50.646908" lon="6.218065">
        <ele>459.166870</ele>
        <time>2009-07-30T21:18:12Z</time>
      </trkpt>
      <trkpt lat="50.646673" lon="6.218108">
        <ele>458.686150</ele>
        <time>2009-07-30T21:18:22Z</time>
      </trkpt>
      <trkpt lat="50.646291" lon="6.218260">
        <ele>458.205560</ele>
        <time>2009-07-30T21:18:37Z</time>
      </trkpt>
      <trkpt lat="50.646104" lon="6.218079">
        <ele>460.128170</ele>
        <time>2009-07-30T21:18:46Z</time>
      </trkpt>
      <trkpt lat="50.646082" lon="6.217928">
        <ele>460.128170</ele>
        <time>2009-07-30T21:18:50Z</time>
      </trkpt>
      <trkpt lat="50.645814" lon="6.217921">
        <ele>461.089470</ele>
        <time>2009-07-30T21:19:01Z</time>
      </trkpt>
      <trkpt lat="50.645615" lon="6.217839">
        <ele>460.128170</ele>
        <time>2009-07-30T21:19:09Z</time>
      </trkpt>
      <trkpt lat="50.645474" lon="6.217988">
        <ele>460.608760</ele>
        <time>2009-07-30T21:19:16Z</time>
      </trkpt>
      <trkpt lat="50.645454" lon="6.218221">
        <ele>459.647580</ele>
        <time>2009-07-30T21:19:22Z</time>
      </trkpt>
      <trkpt lat="50.644855" lon="6.218640">
        <ele>458.205560</ele>
        <time>2009-07-30T21:19:48Z</time>
      </trkpt>
      <trkpt lat="50.644715" lon="6.218719">
        <ele>458.686150</ele>
        <time>2009-07-30T21:19:54Z</time>
      </trkpt>
      <trkpt lat="50.644408" lon="6.218838">
        <ele>458.205560</ele>
        <time>2009-07-30T21:20:07Z</time>
      </trkpt>
      <trkpt lat="50.644211" lon="6.218865">
        <ele>458.686150</ele>
        <time>2009-07-30T21:20:14Z</time>
      </trkpt>
      <trkpt lat="50.644003" lon="6.218853">
        <ele>457.724970</ele>
        <time>2009-07-30T21:20:23Z</time>
      </trkpt>
      <trkpt lat="50.643823" lon="6.218689">
        <ele>457.244260</ele>
        <time>2009-07-30T21:20:31Z</time>
      </trkpt>
      <trkpt lat="50.643697" lon="6.218364">
        <ele>456.763540</ele>
        <time>2009-07-30T21:20:41Z</time>
      </trkpt>
      <trkpt lat="50.643717" lon="6.218009">
        <ele>456.282950</ele>
        <time>2009-07-30T21:20:50Z</time>
      </trkpt>
      <trkpt lat="50.644002" lon="6.217617">
        <ele>454.840820</ele>
        <time>2009-07-30T21:21:05Z</time>
      </trkpt>
      <trkpt lat="50.644022" lon="6.217478">
        <ele>454.360220</ele>
        <time>2009-07-30T21:21:09Z</time>
      </trkpt>
      <trkpt lat="50.644096" lon="6.217309">
        <ele>454.360220</ele>
        <time>2009-07-30T21:21:14Z</time>
      </trkpt>
      <trkpt lat="50.644226" lon="6.216704">
        <ele>453.398920</ele>
        <time>2009-07-30T21:21:30Z</time>
      </trkpt>
      <trkpt lat="50.644418" lon="6.216206">
        <ele>453.398920</ele>
        <time>2009-07-30T21:21:45Z</time>
      </trkpt>
      <trkpt lat="50.644587" lon="6.215634">
        <ele>452.918210</ele>
        <time>2009-07-30T21:22:01Z</time>
      </trkpt>
      <trkpt lat="50.644792" lon="6.215136">
        <ele>452.437620</ele>
        <time>2009-07-30T21:22:16Z</time>
      </trkpt>
      <trkpt lat="50.644845" lon="6.214838">
        <ele>451.957030</ele>
        <time>2009-07-30T21:22:24Z</time>
      </trkpt>
      <trkpt lat="50.645146" lon="6.214013">
        <ele>450.515010</ele>
        <time>2009-07-30T21:22:48Z</time>
      </trkpt>
      <trkpt lat="50.645209" lon="6.213891">
        <ele>450.034420</ele>
        <time>2009-07-30T21:22:52Z</time>
      </trkpt>
      <trkpt lat="50.645204" lon="6.213807">
        <ele>449.553710</ele>
        <time>2009-07-30T21:22:54Z</time>
      </trkpt>
      <trkpt lat="50.645256" lon="6.213720">
        <ele>449.072990</ele>
        <time>2009-07-30T21:22:57Z</time>
      </trkpt>
      <trkpt lat="50.645355" lon="6.212971">
        <ele>449.072990</ele>
        <time>2009-07-30T21:23:17Z</time>
      </trkpt>
      <trkpt lat="50.645484" lon="6.212771">
        <ele>448.592400</ele>
        <time>2009-07-30T21:23:24Z</time>
      </trkpt>
      <trkpt lat="50.645855" lon="6.212337">
        <ele>447.150260</ele>
        <time>2009-07-30T21:23:42Z</time>
      </trkpt>
      <trkpt lat="50.645937" lon="6.212251">
        <ele>446.669670</ele>
        <time>2009-07-30T21:23:46Z</time>
      </trkpt>
      <trkpt lat="50.646053" lon="6.212202">
        <ele>446.669670</ele>
        <time>2009-07-30T21:23:51Z</time>
      </trkpt>
      <trkpt lat="50.646217" lon="6.212043">
        <ele>446.189080</ele>
        <time>2009-07-30T21:23:59Z</time>
      </trkpt>
      <trkpt lat="50.646314" lon="6.211850">
        <ele>444.266470</ele>
        <time>2009-07-30T21:24:05Z</time>
      </trkpt>
      <trkpt lat="50.646783" lon="6.211332">
        <ele>441.382440</ele>
        <time>2009-07-30T21:24:28Z</time>
      </trkpt>
      <trkpt lat="50.647053" lon="6.210852">
        <ele>439.940420</ele>
        <time>2009-07-30T21:24:44Z</time>
      </trkpt>
      <trkpt lat="50.647166" lon="6.210713">
        <ele>440.421260</ele>
        <time>2009-07-30T21:24:50Z</time>
      </trkpt>
      <trkpt lat="50.647165" lon="6.210680">
        <ele>440.421260</ele>
        <time>2009-07-30T21:24:51Z</time>
      </trkpt>
      <trkpt lat="50.647327" lon="6.210513">
        <ele>439.459710</ele>
        <time>2009-07-30T21:24:59Z</time>
      </trkpt>
      <trkpt lat="50.647483" lon="6.210294">
        <ele>438.017820</ele>
        <time>2009-07-30T21:25:07Z</time>
      </trkpt>
      <trkpt lat="50.647719" lon="6.210063">
        <ele>437.056510</ele>
        <time>2009-07-30T21:25:18Z</time>
      </trkpt>
      <trkpt lat="50.647805" lon="6.209857">
        <ele>436.575920</ele>
        <time>2009-07-30T21:25:24Z</time>
      </trkpt>
      <trkpt lat="50.648062" lon="6.209522">
        <ele>435.133910</ele>
        <time>2009-07-30T21:25:38Z</time>
      </trkpt>
      <trkpt lat="50.648175" lon="6.209421">
        <ele>435.614500</ele>
        <time>2009-07-30T21:25:43Z</time>
      </trkpt>
      <trkpt lat="50.648554" lon="6.208947">
        <ele>433.211300</ele>
        <time>2009-07-30T21:26:02Z</time>
      </trkpt>
      <trkpt lat="50.648869" lon="6.208597">
        <ele>431.288570</ele>
        <time>2009-07-30T21:26:18Z</time>
      </trkpt>
      <trkpt lat="50.648942" lon="6.208557">
        <ele>431.288570</ele>
        <time>2009-07-30T21:26:21Z</time>
      </trkpt>
      <trkpt lat="50.649371" lon="6.208613">
        <ele>427.443350</ele>
        <time>2009-07-30T21:26:38Z</time>
      </trkpt>
      <trkpt lat="50.649539" lon="6.208609">
        <ele>426.962760</ele>
        <time>2009-07-30T21:26:45Z</time>
      </trkpt>
      <trkpt lat="50.649760" lon="6.208526">
        <ele>425.520750</ele>
        <time>2009-07-30T21:26:54Z</time>
      </trkpt>
      <trkpt lat="50.650088" lon="6.208031">
        <ele>424.078730</ele>
        <time>2009-07-30T21:27:12Z</time>
      </trkpt>
      <trkpt lat="50.650119" lon="6.207901">
        <ele>423.598020</ele>
        <time>2009-07-30T21:27:15Z</time>
      </trkpt>
      <trkpt lat="50.650162" lon="6.207368">
        <ele>423.117430</ele>
        <time>2009-07-30T21:27:29Z</time>
      </trkpt>
      <trkpt lat="50.650160" lon="6.207029">
        <ele>423.117430</ele>
        <time>2009-07-30T21:27:38Z</time>
      </trkpt>
      <trkpt lat="50.650048" lon="6.206779">
        <ele>422.636710</ele>
        <time>2009-07-30T21:27:45Z</time>
      </trkpt>
      <trkpt lat="50.650021" lon="6.206586">
        <ele>422.156000</ele>
        <time>2009-07-30T21:27:50Z</time>
      </trkpt>
      <trkpt lat="50.650035" lon="6.206562">
        <ele>422.636710</ele>
        <time>2009-07-30T21:27:51Z</time>
      </trkpt>
      <trkpt lat="50.650275" lon="6.206383">
        <ele>419.752800</ele>
        <time>2009-07-30T21:28:02Z</time>
      </trkpt>
      <trkpt lat="50.650310" lon="6.206368">
        <ele>419.272210</ele>
        <time>2009-07-30T21:28:03Z</time>
      </trkpt>
      <trkpt lat="50.650527" lon="6.206187">
        <ele>417.830200</ele>
        <time>2009-07-30T21:28:13Z</time>
      </trkpt>
      <trkpt lat="50.650613" lon="6.206144">
        <ele>416.868890</ele>
        <time>2009-07-30T21:28:17Z</time>
      </trkpt>
      <trkpt lat="50.650861" lon="6.206083">
        <ele>415.907470</ele>
        <time>2009-07-30T21:28:27Z</time>
      </trkpt>
      <trkpt lat="50.650893" lon="6.206109">
        <ele>416.388180</ele>
        <time>2009-07-30T21:28:28Z</time>
      </trkpt>
      <trkpt lat="50.650840" lon="6.206110">
        <ele>413.023550</ele>
        <time>2009-07-30T21:28:30Z</time>
      </trkpt>
      <trkpt lat="50.650990" lon="6.206022">
        <ele>411.581660</ele>
        <time>2009-07-30T21:28:37Z</time>
      </trkpt>
      <trkpt lat="50.651450" lon="6.205562">
        <ele>406.294310</ele>
        <time>2009-07-30T21:28:59Z</time>
      </trkpt>
      <trkpt lat="50.651764" lon="6.205349">
        <ele>402.929680</ele>
        <time>2009-07-30T21:29:12Z</time>
      </trkpt>
      <trkpt lat="50.651849" lon="6.205259">
        <ele>401.968500</ele>
        <time>2009-07-30T21:29:16Z</time>
      </trkpt>
      <trkpt lat="50.651875" lon="6.205175">
        <ele>401.007080</ele>
        <time>2009-07-30T21:29:19Z</time>
      </trkpt>
      <trkpt lat="50.652004" lon="6.204980">
        <ele>399.084350</ele>
        <time>2009-07-30T21:29:26Z</time>
      </trkpt>
      <trkpt lat="50.652087" lon="6.205058">
        <ele>399.084350</ele>
        <time>2009-07-30T21:29:30Z</time>
      </trkpt>
      <trkpt lat="50.652146" lon="6.205461">
        <ele>398.603750</ele>
        <time>2009-07-30T21:29:40Z</time>
      </trkpt>
      <trkpt lat="50.652292" lon="6.205867">
        <ele>398.603750</ele>
        <time>2009-07-30T21:29:52Z</time>
      </trkpt>
      <trkpt lat="50.652600" lon="6.206257">
        <ele>398.123160</ele>
        <time>2009-07-30T21:30:08Z</time>
      </trkpt>
      <trkpt lat="50.653245" lon="6.206807">
        <ele>395.239130</ele>
        <time>2009-07-30T21:30:37Z</time>
      </trkpt>
      <trkpt lat="50.653232" lon="6.206789">
        <ele>395.719840</ele>
        <time>2009-07-30T21:30:38Z</time>
      </trkpt>
      <trkpt lat="50.653275" lon="6.206475">
        <ele>394.277950</ele>
        <time>2009-07-30T21:30:46Z</time>
      </trkpt>
      <trkpt lat="50.653335" lon="6.206338">
        <ele>394.277950</ele>
        <time>2009-07-30T21:30:50Z</time>
      </trkpt>
      <trkpt lat="50.653560" lon="6.206088">
        <ele>393.797240</ele>
        <time>2009-07-30T21:31:02Z</time>
      </trkpt>
      <trkpt lat="50.653653" lon="6.206038">
        <ele>393.797240</ele>
        <time>2009-07-30T21:31:05Z</time>
      </trkpt>
      <trkpt lat="50.653937" lon="6.205981">
        <ele>392.835930</ele>
        <time>2009-07-30T21:31:17Z</time>
      </trkpt>
      <trkpt lat="50.654014" lon="6.205931">
        <ele>392.835930</ele>
        <time>2009-07-30T21:31:20Z</time>
      </trkpt>
      <trkpt lat="50.654211" lon="6.205888">
        <ele>392.835930</ele>
        <time>2009-07-30T21:31:28Z</time>
      </trkpt>
      <trkpt lat="50.654388" lon="6.205886">
        <ele>391.874510</ele>
        <time>2009-07-30T21:31:35Z</time>
      </trkpt>
      <trkpt lat="50.654580" lon="6.205804">
        <ele>389.471190</ele>
        <time>2009-07-30T21:31:43Z</time>
      </trkpt>
      <trkpt lat="50.654873" lon="6.205696">
        <ele>388.510000</ele>
        <time>2009-07-30T21:31:55Z</time>
      </trkpt>
      <trkpt lat="50.655026" lon="6.205672">
        <ele>387.548580</ele>
        <time>2009-07-30T21:32:01Z</time>
      </trkpt>
      <trkpt lat="50.655056" lon="6.205689">
        <ele>387.067990</ele>
        <time>2009-07-30T21:32:03Z</time>
      </trkpt>
      <trkpt lat="50.655125" lon="6.205677">
        <ele>387.067990</ele>
        <time>2009-07-30T21:32:06Z</time>
      </trkpt>
      <trkpt lat="50.655455" lon="6.205832">
        <ele>385.145380</ele>
        <time>2009-07-30T21:32:19Z</time>
      </trkpt>
      <trkpt lat="50.655554" lon="6.205846">
        <ele>385.145380</ele>
        <time>2009-07-30T21:32:23Z</time>
      </trkpt>
      <trkpt lat="50.655853" lon="6.205957">
        <ele>383.222650</ele>
        <time>2009-07-30T21:32:36Z</time>
      </trkpt>
      <trkpt lat="50.656027" lon="6.205923">
        <ele>382.261350</ele>
        <time>2009-07-30T21:32:43Z</time>
      </trkpt>
      <trkpt lat="50.656181" lon="6.205847">
        <ele>380.819450</ele>
        <time>2009-07-30T21:32:49Z</time>
      </trkpt>
      <trkpt lat="50.656332" lon="6.205843">
        <ele>379.377440</ele>
        <time>2009-07-30T21:32:55Z</time>
      </trkpt>
      <trkpt lat="50.656378" lon="6.205860">
        <ele>378.896850</ele>
        <time>2009-07-30T21:32:57Z</time>
      </trkpt>
      <trkpt lat="50.656610" lon="6.205837">
        <ele>376.012810</ele>
        <time>2009-07-30T21:33:06Z</time>
      </trkpt>
      <trkpt lat="50.656708" lon="6.205846">
        <ele>375.051510</ele>
        <time>2009-07-30T21:33:10Z</time>
      </trkpt>
      <trkpt lat="50.656834" lon="6.205800">
        <ele>374.570800</ele>
        <time>2009-07-30T21:33:15Z</time>
      </trkpt>
      <trkpt lat="50.656945" lon="6.205788">
        <ele>373.128900</ele>
        <time>2009-07-30T21:33:20Z</time>
      </trkpt>
      <trkpt lat="50.656960" lon="6.205827">
        <ele>372.648190</ele>
        <time>2009-07-30T21:33:21Z</time>
      </trkpt>
      <trkpt lat="50.657011" lon="6.205824">
        <ele>372.167480</ele>
        <time>2009-07-30T21:33:23Z</time>
      </trkpt>
      <trkpt lat="50.657402" lon="6.205719">
        <ele>365.918940</ele>
        <time>2009-07-30T21:33:39Z</time>
      </trkpt>
      <trkpt lat="50.657721" lon="6.205773">
        <ele>368.322260</ele>
        <time>2009-07-30T21:33:52Z</time>
      </trkpt>
      <trkpt lat="50.658028" lon="6.205592">
        <ele>366.880240</ele>
        <time>2009-07-30T21:34:05Z</time>
      </trkpt>
      <trkpt lat="50.658091" lon="6.205667">
        <ele>366.880240</ele>
        <time>2009-07-30T21:34:08Z</time>
      </trkpt>
      <trkpt lat="50.658294" lon="6.205655">
        <ele>365.438350</ele>
        <time>2009-07-30T21:34:16Z</time>
      </trkpt>
      <trkpt lat="50.658371" lon="6.205490">
        <ele>363.035030</ele>
        <time>2009-07-30T21:34:21Z</time>
      </trkpt>
      <trkpt lat="50.658416" lon="6.205490">
        <ele>363.515740</ele>
        <time>2009-07-30T21:34:23Z</time>
      </trkpt>
      <trkpt lat="50.658616" lon="6.205348">
        <ele>363.035030</ele>
        <time>2009-07-30T21:34:32Z</time>
      </trkpt>
      <trkpt lat="50.658878" lon="6.205220">
        <ele>363.515740</ele>
        <time>2009-07-30T21:34:43Z</time>
      </trkpt>
      <trkpt lat="50.659368" lon="6.205086">
        <ele>365.918940</ele>
        <time>2009-07-30T21:35:03Z</time>
      </trkpt>
      <trkpt lat="50.659381" lon="6.205115">
        <ele>365.438350</ele>
        <time>2009-07-30T21:35:04Z</time>
      </trkpt>
      <trkpt lat="50.659607" lon="6.205282">
        <ele>363.515740</ele>
        <time>2009-07-30T21:35:14Z</time>
      </trkpt>
      <trkpt lat="50.659847" lon="6.205283">
        <ele>364.476920</ele>
        <time>2009-07-30T21:35:23Z</time>
      </trkpt>
      <trkpt lat="50.659993" lon="6.205234">
        <ele>364.957640</ele>
        <time>2009-07-30T21:35:29Z</time>
      </trkpt>
      <trkpt lat="50.660165" lon="6.205360">
        <ele>366.399530</ele>
        <time>2009-07-30T21:35:37Z</time>
      </trkpt>
    </trkseg>
  </trk>

</gpx>
